sensor_id;sensor_type;location;lat;lon;timestamp;P1;durP1;ratioP1;P2;durP2;ratioP2
12296;SDS011;6211;49.124;9.152;2023-12-29T00:00:28;2.78;;;1.33;;
12296;SDS011;6211;49.124;9.152;2023-12-29T00:02:55;1.48;;;1.38;;
12296;SDS011;6211;49.124;9.152;2023-12-29T00:05:22;4.60;;;1.67;;
12296;SDS011;6211;49.124;9.152;2023-12-29T00:07:50;1.67;;;1.58;;
12296;SDS011;6211;49.124;9.152;2023-12-29T00:10:17;1.52;;;1.40;;
12296;SDS011;6211;49.124;9.152;2023-12-29T00:12:44;2.30;;;1.58;;
12296;SDS011;6211;49.124;9.152;2023-12-29T00:15:11;1.70;;;1.40;;
12296;SDS011;6211;49.124;9.152;2023-12-29T00:17:38;1.77;;;1.50;;
12296;SDS011;6211;49.124;9.152;2023-12-29T00:20:06;3.58;;;1.70;;
12296;SDS011;6211;49.124;9.152;2023-12-29T00:22:33;1.60;;;1.38;;
12296;SDS011;6211;49.124;9.152;2023-12-29T00:25:02;1.17;;;1.10;;
12296;SDS011;6211;49.124;9.152;2023-12-29T00:27:30;1.35;;;1.00;;
12296;SDS011;6211;49.124;9.152;2023-12-29T00:29:57;1.83;;;1.40;;
12296;SDS011;6211;49.124;9.152;2023-12-29T00:32:24;1.50;;;1.02;;
12296;SDS011;6211;49.124;9.152;2023-12-29T00:34:51;1.13;;;1.02;;
12296;SDS011;6211;49.124;9.152;2023-12-29T00:37:18;1.38;;;1.25;;
12296;SDS011;6211;49.124;9.152;2023-12-29T00:39:45;2.33;;;1.15;;
12296;SDS011;6211;49.124;9.152;2023-12-29T00:42:14;2.10;;;1.45;;
12296;SDS011;6211;49.124;9.152;2023-12-29T00:44:41;1.17;;;1.15;;
12296;SDS011;6211;49.124;9.152;2023-12-29T00:47:08;1.05;;;1.02;;
12296;SDS011;6211;49.124;9.152;2023-12-29T00:49:37;3.00;;;1.30;;
12296;SDS011;6211;49.124;9.152;2023-12-29T00:52:06;2.92;;;1.63;;
12296;SDS011;6211;49.124;9.152;2023-12-29T00:54:33;1.45;;;1.30;;
12296;SDS011;6211;49.124;9.152;2023-12-29T00:57:00;1.70;;;1.45;;
12296;SDS011;6211;49.124;9.152;2023-12-29T00:59:28;2.50;;;1.33;;
12296;SDS011;6211;49.124;9.152;2023-12-29T01:01:55;1.73;;;1.45;;
12296;SDS011;6211;49.124;9.152;2023-12-29T01:04:22;2.08;;;1.88;;
12296;SDS011;6211;49.124;9.152;2023-12-29T01:06:49;1.58;;;1.40;;
12296;SDS011;6211;49.124;9.152;2023-12-29T01:09:19;2.88;;;2.10;;
12296;SDS011;6211;49.124;9.152;2023-12-29T01:11:46;1.50;;;1.40;;
12296;SDS011;6211;49.124;9.152;2023-12-29T01:14:13;1.85;;;1.75;;
12296;SDS011;6211;49.124;9.152;2023-12-29T01:16:41;1.65;;;1.55;;
12296;SDS011;6211;49.124;9.152;2023-12-29T01:19:08;2.22;;;2.03;;
12296;SDS011;6211;49.124;9.152;2023-12-29T01:21:37;4.15;;;2.35;;
12296;SDS011;6211;49.124;9.152;2023-12-29T01:24:04;1.85;;;1.40;;
12296;SDS011;6211;49.124;9.152;2023-12-29T01:26:32;2.47;;;2.03;;
12296;SDS011;6211;49.124;9.152;2023-12-29T01:29:03;2.20;;;1.80;;
12296;SDS011;6211;49.124;9.152;2023-12-29T01:31:30;2.35;;;2.15;;
12296;SDS011;6211;49.124;9.152;2023-12-29T01:33:58;2.90;;;2.00;;
12296;SDS011;6211;49.124;9.152;2023-12-29T01:36:25;2.38;;;2.00;;
12296;SDS011;6211;49.124;9.152;2023-12-29T01:38:53;6.38;;;2.00;;
12296;SDS011;6211;49.124;9.152;2023-12-29T01:41:20;2.30;;;2.10;;
12296;SDS011;6211;49.124;9.152;2023-12-29T01:44:08;3.05;;;2.70;;
12296;SDS011;6211;49.124;9.152;2023-12-29T01:46:42;4.95;;;3.75;;
12296;SDS011;6211;49.124;9.152;2023-12-29T01:49:12;2.33;;;1.85;;
12296;SDS011;6211;49.124;9.152;2023-12-29T01:51:40;3.15;;;2.25;;
12296;SDS011;6211;49.124;9.152;2023-12-29T01:54:08;2.83;;;1.98;;
12296;SDS011;6211;49.124;9.152;2023-12-29T01:56:35;3.22;;;1.77;;
12296;SDS011;6211;49.124;9.152;2023-12-29T01:59:02;3.25;;;2.40;;
12296;SDS011;6211;49.124;9.152;2023-12-29T02:01:30;2.95;;;2.45;;
12296;SDS011;6211;49.124;9.152;2023-12-29T02:03:57;3.17;;;2.08;;
12296;SDS011;6211;49.124;9.152;2023-12-29T02:06:25;4.25;;;2.30;;
12296;SDS011;6211;49.124;9.152;2023-12-29T02:08:53;2.20;;;2.00;;
12296;SDS011;6211;49.124;9.152;2023-12-29T02:11:21;2.40;;;2.20;;
12296;SDS011;6211;49.124;9.152;2023-12-29T02:13:48;4.50;;;2.03;;
12296;SDS011;6211;49.124;9.152;2023-12-29T02:16:16;3.28;;;2.20;;
12296;SDS011;6211;49.124;9.152;2023-12-29T02:18:44;3.05;;;2.30;;
12296;SDS011;6211;49.124;9.152;2023-12-29T02:21:11;3.17;;;2.60;;
12296;SDS011;6211;49.124;9.152;2023-12-29T02:23:40;4.07;;;2.40;;
12296;SDS011;6211;49.124;9.152;2023-12-29T02:26:09;4.75;;;2.05;;
12296;SDS011;6211;49.124;9.152;2023-12-29T02:28:37;3.30;;;2.28;;
12296;SDS011;6211;49.124;9.152;2023-12-29T02:31:07;2.35;;;2.15;;
12296;SDS011;6211;49.124;9.152;2023-12-29T02:33:36;2.85;;;2.15;;
12296;SDS011;6211;49.124;9.152;2023-12-29T02:36:04;3.53;;;2.72;;
12296;SDS011;6211;49.124;9.152;2023-12-29T02:38:32;2.72;;;2.13;;
12296;SDS011;6211;49.124;9.152;2023-12-29T02:40:59;3.05;;;2.13;;
12296;SDS011;6211;49.124;9.152;2023-12-29T02:43:28;5.25;;;2.30;;
12296;SDS011;6211;49.124;9.152;2023-12-29T02:45:58;2.60;;;2.25;;
12296;SDS011;6211;49.124;9.152;2023-12-29T02:48:25;3.25;;;2.53;;
12296;SDS011;6211;49.124;9.152;2023-12-29T02:50:52;2.55;;;2.20;;
12296;SDS011;6211;49.124;9.152;2023-12-29T02:53:19;2.88;;;2.40;;
12296;SDS011;6211;49.124;9.152;2023-12-29T02:55:46;3.25;;;2.28;;
12296;SDS011;6211;49.124;9.152;2023-12-29T02:58:13;2.88;;;2.28;;
12296;SDS011;6211;49.124;9.152;2023-12-29T03:00:41;3.10;;;1.85;;
12296;SDS011;6211;49.124;9.152;2023-12-29T03:03:08;2.33;;;2.10;;
12296;SDS011;6211;49.124;9.152;2023-12-29T03:05:35;4.63;;;2.20;;
12296;SDS011;6211;49.124;9.152;2023-12-29T03:08:03;2.17;;;1.98;;
12296;SDS011;6211;49.124;9.152;2023-12-29T03:10:30;3.97;;;2.42;;
12296;SDS011;6211;49.124;9.152;2023-12-29T03:12:57;2.20;;;2.00;;
12296;SDS011;6211;49.124;9.152;2023-12-29T03:15:24;4.03;;;2.10;;
12296;SDS011;6211;49.124;9.152;2023-12-29T03:17:52;2.17;;;1.95;;
12296;SDS011;6211;49.124;9.152;2023-12-29T03:20:19;3.53;;;2.20;;
12296;SDS011;6211;49.124;9.152;2023-12-29T03:22:47;2.53;;;1.83;;
12296;SDS011;6211;49.124;9.152;2023-12-29T03:25:14;2.47;;;1.98;;
12296;SDS011;6211;49.124;9.152;2023-12-29T03:27:41;3.25;;;2.47;;
12296;SDS011;6211;49.124;9.152;2023-12-29T03:30:09;3.40;;;2.45;;
12296;SDS011;6211;49.124;9.152;2023-12-29T03:32:36;3.70;;;2.33;;
12296;SDS011;6211;49.124;9.152;2023-12-29T03:35:05;5.05;;;2.45;;
12296;SDS011;6211;49.124;9.152;2023-12-29T03:37:32;3.13;;;2.10;;
12296;SDS011;6211;49.124;9.152;2023-12-29T03:39:59;1.77;;;1.67;;
12296;SDS011;6211;49.124;9.152;2023-12-29T03:42:26;3.33;;;2.40;;
12296;SDS011;6211;49.124;9.152;2023-12-29T03:44:53;2.30;;;2.10;;
12296;SDS011;6211;49.124;9.152;2023-12-29T03:47:20;2.95;;;2.22;;
12296;SDS011;6211;49.124;9.152;2023-12-29T03:49:47;2.60;;;1.98;;
12296;SDS011;6211;49.124;9.152;2023-12-29T03:52:16;2.15;;;1.95;;
12296;SDS011;6211;49.124;9.152;2023-12-29T03:54:43;2.53;;;2.10;;
12296;SDS011;6211;49.124;9.152;2023-12-29T03:57:10;2.85;;;1.90;;
12296;SDS011;6211;49.124;9.152;2023-12-29T03:59:37;2.25;;;1.95;;
12296;SDS011;6211;49.124;9.152;2023-12-29T04:02:04;2.40;;;2.20;;
12296;SDS011;6211;49.124;9.152;2023-12-29T04:04:31;2.70;;;2.10;;
12296;SDS011;6211;49.124;9.152;2023-12-29T04:06:58;2.80;;;2.22;;
12296;SDS011;6211;49.124;9.152;2023-12-29T04:09:27;3.00;;;2.33;;
12296;SDS011;6211;49.124;9.152;2023-12-29T04:11:54;2.47;;;2.28;;
12296;SDS011;6211;49.124;9.152;2023-12-29T04:14:21;3.58;;;2.35;;
12296;SDS011;6211;49.124;9.152;2023-12-29T04:16:48;2.50;;;2.17;;
12296;SDS011;6211;49.124;9.152;2023-12-29T04:19:15;2.28;;;2.08;;
12296;SDS011;6211;49.124;9.152;2023-12-29T04:21:42;4.80;;;2.10;;
12296;SDS011;6211;49.124;9.152;2023-12-29T04:24:09;2.20;;;2.00;;
12296;SDS011;6211;49.124;9.152;2023-12-29T04:26:37;2.45;;;2.22;;
12296;SDS011;6211;49.124;9.152;2023-12-29T04:29:04;2.20;;;2.00;;
12296;SDS011;6211;49.124;9.152;2023-12-29T04:31:32;2.90;;;2.45;;
12296;SDS011;6211;49.124;9.152;2023-12-29T04:33:59;4.13;;;2.83;;
12296;SDS011;6211;49.124;9.152;2023-12-29T04:36:26;3.15;;;2.47;;
12296;SDS011;6211;49.124;9.152;2023-12-29T04:38:53;2.30;;;2.10;;
12296;SDS011;6211;49.124;9.152;2023-12-29T04:41:20;2.75;;;2.38;;
12296;SDS011;6211;49.124;9.152;2023-12-29T04:43:48;3.90;;;2.47;;
12296;SDS011;6211;49.124;9.152;2023-12-29T04:46:15;2.17;;;1.90;;
12296;SDS011;6211;49.124;9.152;2023-12-29T04:48:43;2.53;;;1.98;;
12296;SDS011;6211;49.124;9.152;2023-12-29T04:51:10;2.75;;;2.50;;
12296;SDS011;6211;49.124;9.152;2023-12-29T04:53:37;2.45;;;2.10;;
12296;SDS011;6211;49.124;9.152;2023-12-29T04:56:04;4.22;;;2.30;;
12296;SDS011;6211;49.124;9.152;2023-12-29T04:58:32;3.00;;;2.42;;
12296;SDS011;6211;49.124;9.152;2023-12-29T05:01:00;2.97;;;2.40;;
12296;SDS011;6211;49.124;9.152;2023-12-29T05:03:27;4.82;;;2.30;;
12296;SDS011;6211;49.124;9.152;2023-12-29T05:05:54;2.72;;;1.92;;
12296;SDS011;6211;49.124;9.152;2023-12-29T05:08:21;3.65;;;2.13;;
12296;SDS011;6211;49.124;9.152;2023-12-29T05:10:48;3.15;;;2.72;;
12296;SDS011;6211;49.124;9.152;2023-12-29T05:13:15;3.08;;;2.30;;
12296;SDS011;6211;49.124;9.152;2023-12-29T05:15:43;3.60;;;3.20;;
12296;SDS011;6211;49.124;9.152;2023-12-29T05:18:12;3.28;;;2.47;;
12296;SDS011;6211;49.124;9.152;2023-12-29T05:20:39;3.28;;;2.50;;
12296;SDS011;6211;49.124;9.152;2023-12-29T05:23:06;3.22;;;2.33;;
12296;SDS011;6211;49.124;9.152;2023-12-29T05:25:33;3.17;;;2.60;;
12296;SDS011;6211;49.124;9.152;2023-12-29T05:28:00;5.07;;;2.80;;
12296;SDS011;6211;49.124;9.152;2023-12-29T05:30:27;2.60;;;2.30;;
12296;SDS011;6211;49.124;9.152;2023-12-29T05:32:56;4.78;;;3.45;;
12296;SDS011;6211;49.124;9.152;2023-12-29T05:35:25;3.08;;;2.60;;
12296;SDS011;6211;49.124;9.152;2023-12-29T05:37:52;5.05;;;2.80;;
12296;SDS011;6211;49.124;9.152;2023-12-29T05:40:19;2.25;;;2.05;;
12296;SDS011;6211;49.124;9.152;2023-12-29T05:42:46;2.92;;;2.38;;
12296;SDS011;6211;49.124;9.152;2023-12-29T05:45:15;2.55;;;2.03;;
12296;SDS011;6211;49.124;9.152;2023-12-29T05:47:42;4.05;;;2.45;;
12296;SDS011;6211;49.124;9.152;2023-12-29T05:50:09;3.25;;;2.40;;
12296;SDS011;6211;49.124;9.152;2023-12-29T05:52:38;3.08;;;2.13;;
12296;SDS011;6211;49.124;9.152;2023-12-29T05:55:05;2.33;;;2.10;;
12296;SDS011;6211;49.124;9.152;2023-12-29T05:57:32;2.78;;;2.40;;
12296;SDS011;6211;49.124;9.152;2023-12-29T05:59:59;3.53;;;2.65;;
12296;SDS011;6211;49.124;9.152;2023-12-29T06:02:26;3.65;;;2.35;;
12296;SDS011;6211;49.124;9.152;2023-12-29T06:04:53;2.47;;;2.28;;
12296;SDS011;6211;49.124;9.152;2023-12-29T06:07:20;4.32;;;3.00;;
12296;SDS011;6211;49.124;9.152;2023-12-29T06:09:49;3.22;;;2.58;;
12296;SDS011;6211;49.124;9.152;2023-12-29T06:12:16;2.47;;;2.25;;
12296;SDS011;6211;49.124;9.152;2023-12-29T06:14:43;2.90;;;2.30;;
12296;SDS011;6211;49.124;9.152;2023-12-29T06:17:10;4.15;;;2.58;;
12296;SDS011;6211;49.124;9.152;2023-12-29T06:19:37;2.60;;;2.33;;
12296;SDS011;6211;49.124;9.152;2023-12-29T06:22:04;4.00;;;2.42;;
12296;SDS011;6211;49.124;9.152;2023-12-29T06:24:36;3.53;;;2.47;;
12296;SDS011;6211;49.124;9.152;2023-12-29T06:27:04;3.20;;;2.50;;
12296;SDS011;6211;49.124;9.152;2023-12-29T06:29:31;2.80;;;2.60;;
12296;SDS011;6211;49.124;9.152;2023-12-29T06:31:59;2.30;;;2.10;;
12296;SDS011;6211;49.124;9.152;2023-12-29T06:34:26;3.03;;;2.53;;
12296;SDS011;6211;49.124;9.152;2023-12-29T06:36:53;2.88;;;2.38;;
12296;SDS011;6211;49.124;9.152;2023-12-29T06:39:20;1.98;;;1.83;;
12296;SDS011;6211;49.124;9.152;2023-12-29T06:41:47;2.40;;;2.17;;
12296;SDS011;6211;49.124;9.152;2023-12-29T06:44:16;2.58;;;1.80;;
12296;SDS011;6211;49.124;9.152;2023-12-29T06:46:43;2.25;;;1.98;;
12296;SDS011;6211;49.124;9.152;2023-12-29T06:49:10;2.92;;;1.98;;
12296;SDS011;6211;49.124;9.152;2023-12-29T06:51:37;3.92;;;2.35;;
12296;SDS011;6211;49.124;9.152;2023-12-29T06:54:06;3.20;;;2.50;;
12296;SDS011;6211;49.124;9.152;2023-12-29T06:56:33;3.50;;;2.60;;
12296;SDS011;6211;49.124;9.152;2023-12-29T06:59:00;3.60;;;2.40;;
12296;SDS011;6211;49.124;9.152;2023-12-29T07:01:28;2.22;;;2.03;;
12296;SDS011;6211;49.124;9.152;2023-12-29T07:03:55;2.95;;;2.00;;
12296;SDS011;6211;49.124;9.152;2023-12-29T07:06:22;2.80;;;2.55;;
12296;SDS011;6211;49.124;9.152;2023-12-29T07:08:49;2.25;;;2.05;;
12296;SDS011;6211;49.124;9.152;2023-12-29T07:11:16;3.45;;;2.63;;
12296;SDS011;6211;49.124;9.152;2023-12-29T07:13:43;2.67;;;2.17;;
12296;SDS011;6211;49.124;9.152;2023-12-29T07:16:11;2.33;;;2.13;;
12296;SDS011;6211;49.124;9.152;2023-12-29T07:18:39;2.90;;;2.40;;
12296;SDS011;6211;49.124;9.152;2023-12-29T07:21:07;3.08;;;2.13;;
12296;SDS011;6211;49.124;9.152;2023-12-29T07:23:34;2.97;;;2.00;;
12296;SDS011;6211;49.124;9.152;2023-12-29T07:26:01;2.58;;;2.08;;
12296;SDS011;6211;49.124;9.152;2023-12-29T07:28:28;2.22;;;2.05;;
12296;SDS011;6211;49.124;9.152;2023-12-29T07:30:55;3.42;;;3.13;;
12296;SDS011;6211;49.124;9.152;2023-12-29T07:33:23;4.90;;;2.97;;
12296;SDS011;6211;49.124;9.152;2023-12-29T07:35:51;4.95;;;3.88;;
12296;SDS011;6211;49.124;9.152;2023-12-29T07:38:18;8.13;;;4.90;;
12296;SDS011;6211;49.124;9.152;2023-12-29T07:40:45;8.48;;;5.22;;
12296;SDS011;6211;49.124;9.152;2023-12-29T07:43:13;8.07;;;5.70;;
12296;SDS011;6211;49.124;9.152;2023-12-29T07:45:40;7.85;;;6.45;;
12296;SDS011;6211;49.124;9.152;2023-12-29T07:48:08;5.63;;;5.13;;
12296;SDS011;6211;49.124;9.152;2023-12-29T07:50:35;8.20;;;5.88;;
12296;SDS011;6211;49.124;9.152;2023-12-29T07:53:04;5.38;;;4.00;;
12296;SDS011;6211;49.124;9.152;2023-12-29T07:55:31;4.50;;;3.83;;
12296;SDS011;6211;49.124;9.152;2023-12-29T07:57:58;4.13;;;3.60;;
12296;SDS011;6211;49.124;9.152;2023-12-29T08:00:25;4.47;;;3.22;;
12296;SDS011;6211;49.124;9.152;2023-12-29T08:02:52;3.45;;;2.97;;
12296;SDS011;6211;49.124;9.152;2023-12-29T08:05:19;4.30;;;3.05;;
12296;SDS011;6211;49.124;9.152;2023-12-29T08:07:46;3.60;;;2.90;;
12296;SDS011;6211;49.124;9.152;2023-12-29T08:10:15;2.70;;;2.47;;
12296;SDS011;6211;49.124;9.152;2023-12-29T08:12:42;4.38;;;2.53;;
12296;SDS011;6211;49.124;9.152;2023-12-29T08:15:09;3.78;;;2.35;;
12296;SDS011;6211;49.124;9.152;2023-12-29T08:17:36;2.80;;;2.40;;
12296;SDS011;6211;49.124;9.152;2023-12-29T08:20:04;2.40;;;2.20;;
12296;SDS011;6211;49.124;9.152;2023-12-29T08:22:31;2.83;;;2.33;;
12296;SDS011;6211;49.124;9.152;2023-12-29T08:24:59;2.75;;;2.08;;
12296;SDS011;6211;49.124;9.152;2023-12-29T08:27:27;2.65;;;2.33;;
12296;SDS011;6211;49.124;9.152;2023-12-29T08:29:54;3.80;;;2.80;;
12296;SDS011;6211;49.124;9.152;2023-12-29T08:32:21;4.13;;;2.72;;
12296;SDS011;6211;49.124;9.152;2023-12-29T08:34:48;3.45;;;2.50;;
12296;SDS011;6211;49.124;9.152;2023-12-29T08:37:16;3.00;;;2.50;;
12296;SDS011;6211;49.124;9.152;2023-12-29T08:39:45;3.85;;;2.58;;
12296;SDS011;6211;49.124;9.152;2023-12-29T08:42:12;2.60;;;1.98;;
12296;SDS011;6211;49.124;9.152;2023-12-29T08:44:41;2.47;;;2.10;;
12296;SDS011;6211;49.124;9.152;2023-12-29T08:47:08;3.33;;;3.03;;
12296;SDS011;6211;49.124;9.152;2023-12-29T08:49:35;2.90;;;2.30;;
12296;SDS011;6211;49.124;9.152;2023-12-29T08:52:03;2.63;;;2.22;;
12296;SDS011;6211;49.124;9.152;2023-12-29T08:54:30;2.33;;;2.13;;
12296;SDS011;6211;49.124;9.152;2023-12-29T08:56:57;2.05;;;1.85;;
12296;SDS011;6211;49.124;9.152;2023-12-29T08:59:24;2.42;;;2.03;;
12296;SDS011;6211;49.124;9.152;2023-12-29T09:01:53;3.55;;;2.20;;
12296;SDS011;6211;49.124;9.152;2023-12-29T09:04:20;2.80;;;2.05;;
12296;SDS011;6211;49.124;9.152;2023-12-29T09:06:47;2.55;;;2.17;;
12296;SDS011;6211;49.124;9.152;2023-12-29T09:09:14;2.33;;;1.98;;
12296;SDS011;6211;49.124;9.152;2023-12-29T09:11:41;3.83;;;2.50;;
12296;SDS011;6211;49.124;9.152;2023-12-29T09:14:08;2.60;;;2.38;;
12296;SDS011;6211;49.124;9.152;2023-12-29T09:16:36;2.83;;;2.38;;
12296;SDS011;6211;49.124;9.152;2023-12-29T09:19:04;3.30;;;2.60;;
12296;SDS011;6211;49.124;9.152;2023-12-29T09:21:31;2.22;;;2.03;;
12296;SDS011;6211;49.124;9.152;2023-12-29T09:23:58;2.72;;;2.35;;
12296;SDS011;6211;49.124;9.152;2023-12-29T09:26:25;2.90;;;2.55;;
12296;SDS011;6211;49.124;9.152;2023-12-29T09:28:52;4.63;;;2.78;;
12296;SDS011;6211;49.124;9.152;2023-12-29T09:31:19;3.50;;;2.95;;
12296;SDS011;6211;49.124;9.152;2023-12-29T09:33:46;4.65;;;2.80;;
12296;SDS011;6211;49.124;9.152;2023-12-29T09:36:15;2.75;;;1.88;;
12296;SDS011;6211;49.124;9.152;2023-12-29T09:38:42;3.83;;;2.88;;
12296;SDS011;6211;49.124;9.152;2023-12-29T09:41:13;3.42;;;2.88;;
12296;SDS011;6211;49.124;9.152;2023-12-29T09:43:40;2.58;;;2.38;;
12296;SDS011;6211;49.124;9.152;2023-12-29T09:46:09;3.55;;;2.40;;
12296;SDS011;6211;49.124;9.152;2023-12-29T09:48:37;3.33;;;2.55;;
12296;SDS011;6211;49.124;9.152;2023-12-29T09:51:05;5.20;;;3.30;;
12296;SDS011;6211;49.124;9.152;2023-12-29T09:53:34;4.22;;;3.33;;
12296;SDS011;6211;49.124;9.152;2023-12-29T09:56:03;6.55;;;4.63;;
12296;SDS011;6211;49.124;9.152;2023-12-29T09:58:30;5.95;;;4.05;;
12296;SDS011;6211;49.124;9.152;2023-12-29T10:00:57;3.83;;;3.17;;
12296;SDS011;6211;49.124;9.152;2023-12-29T10:03:25;2.95;;;2.63;;
12296;SDS011;6211;49.124;9.152;2023-12-29T10:05:53;3.40;;;3.08;;
12296;SDS011;6211;49.124;9.152;2023-12-29T10:08:22;4.35;;;2.70;;
12296;SDS011;6211;49.124;9.152;2023-12-29T10:10:51;3.63;;;2.90;;
12296;SDS011;6211;49.124;9.152;2023-12-29T10:13:18;2.17;;;2.03;;
12296;SDS011;6211;49.124;9.152;2023-12-29T10:15:47;2.75;;;2.55;;
12296;SDS011;6211;49.124;9.152;2023-12-29T10:18:18;4.82;;;2.30;;
12296;SDS011;6211;49.124;9.152;2023-12-29T10:20:49;2.10;;;1.88;;
12296;SDS011;6211;49.124;9.152;2023-12-29T10:23:18;1.85;;;1.70;;
12296;SDS011;6211;49.124;9.152;2023-12-29T10:25:46;1.77;;;1.50;;
12296;SDS011;6211;49.124;9.152;2023-12-29T10:28:15;1.50;;;1.40;;
12296;SDS011;6211;49.124;9.152;2023-12-29T10:30:43;0.98;;;0.98;;
12296;SDS011;6211;49.124;9.152;2023-12-29T10:33:10;0.80;;;0.77;;
12296;SDS011;6211;49.124;9.152;2023-12-29T10:35:54;0.70;;;0.70;;
12296;SDS011;6211;49.124;9.152;2023-12-29T10:38:23;1.13;;;1.02;;
12296;SDS011;6211;49.124;9.152;2023-12-29T10:40:50;0.80;;;0.80;;
12296;SDS011;6211;49.124;9.152;2023-12-29T10:43:23;0.70;;;0.60;;
12296;SDS011;6211;49.124;9.152;2023-12-29T10:45:51;1.02;;;0.80;;
12296;SDS011;6211;49.124;9.152;2023-12-29T10:48:32;0.75;;;0.63;;
12296;SDS011;6211;49.124;9.152;2023-12-29T10:50:59;0.77;;;0.77;;
12296;SDS011;6211;49.124;9.152;2023-12-29T10:53:29;0.57;;;0.57;;
12296;SDS011;6211;49.124;9.152;2023-12-29T10:55:56;0.75;;;0.75;;
12296;SDS011;6211;49.124;9.152;2023-12-29T10:58:25;0.90;;;0.80;;
12296;SDS011;6211;49.124;9.152;2023-12-29T11:00:54;1.75;;;0.70;;
12296;SDS011;6211;49.124;9.152;2023-12-29T11:03:21;0.75;;;0.60;;
12296;SDS011;6211;49.124;9.152;2023-12-29T11:05:49;1.05;;;0.80;;
12296;SDS011;6211;49.124;9.152;2023-12-29T11:08:16;1.05;;;1.05;;
12296;SDS011;6211;49.124;9.152;2023-12-29T11:10:44;0.73;;;0.73;;
12296;SDS011;6211;49.124;9.152;2023-12-29T11:13:11;0.70;;;0.70;;
12296;SDS011;6211;49.124;9.152;2023-12-29T11:15:42;0.85;;;0.50;;
12296;SDS011;6211;49.124;9.152;2023-12-29T11:18:11;2.05;;;0.60;;
12296;SDS011;6211;49.124;9.152;2023-12-29T11:20:38;3.72;;;3.45;;
12296;SDS011;6211;49.124;9.152;2023-12-29T11:23:06;0.88;;;0.88;;
12296;SDS011;6211;49.124;9.152;2023-12-29T11:25:33;1.70;;;1.25;;
12296;SDS011;6211;49.124;9.152;2023-12-29T11:28:00;1.00;;;0.80;;
12296;SDS011;6211;49.124;9.152;2023-12-29T11:30:28;0.40;;;0.40;;
12296;SDS011;6211;49.124;9.152;2023-12-29T11:32:57;0.70;;;0.57;;
12296;SDS011;6211;49.124;9.152;2023-12-29T11:35:26;0.70;;;0.70;;
12296;SDS011;6211;49.124;9.152;2023-12-29T11:37:59;0.50;;;0.50;;
12296;SDS011;6211;49.124;9.152;2023-12-29T11:40:29;0.70;;;0.70;;
12296;SDS011;6211;49.124;9.152;2023-12-29T11:42:58;0.77;;;0.70;;
12296;SDS011;6211;49.124;9.152;2023-12-29T11:45:28;0.60;;;0.60;;
12296;SDS011;6211;49.124;9.152;2023-12-29T11:47:58;0.52;;;0.40;;
12296;SDS011;6211;49.124;9.152;2023-12-29T11:50:28;0.50;;;0.50;;
12296;SDS011;6211;49.124;9.152;2023-12-29T11:52:55;0.55;;;0.55;;
12296;SDS011;6211;49.124;9.152;2023-12-29T11:55:23;0.50;;;0.50;;
12296;SDS011;6211;49.124;9.152;2023-12-29T11:57:54;0.70;;;0.70;;
12296;SDS011;6211;49.124;9.152;2023-12-29T12:00:28;0.98;;;0.98;;
12296;SDS011;6211;49.124;9.152;2023-12-29T12:03:14;1.63;;;1.52;;
12296;SDS011;6211;49.124;9.152;2023-12-29T12:05:44;0.65;;;0.65;;
12296;SDS011;6211;49.124;9.152;2023-12-29T12:08:12;0.90;;;0.90;;
12296;SDS011;6211;49.124;9.152;2023-12-29T12:10:53;0.65;;;0.65;;
12296;SDS011;6211;49.124;9.152;2023-12-29T12:16:02;1.38;;;0.43;;
12296;SDS011;6211;49.124;9.152;2023-12-29T12:18:30;0.65;;;0.65;;
12296;SDS011;6211;49.124;9.152;2023-12-29T12:20:58;0.70;;;0.60;;
12296;SDS011;6211;49.124;9.152;2023-12-29T12:23:26;0.40;;;0.40;;
12296;SDS011;6211;49.124;9.152;2023-12-29T12:25:57;0.82;;;0.70;;
12296;SDS011;6211;49.124;9.152;2023-12-29T12:28:25;0.57;;;0.57;;
12296;SDS011;6211;49.124;9.152;2023-12-29T12:30:54;0.60;;;0.60;;
12296;SDS011;6211;49.124;9.152;2023-12-29T12:33:33;0.63;;;0.63;;
12296;SDS011;6211;49.124;9.152;2023-12-29T12:36:00;0.60;;;0.60;;
12296;SDS011;6211;49.124;9.152;2023-12-29T12:38:27;0.68;;;0.68;;
12296;SDS011;6211;49.124;9.152;2023-12-29T12:40:57;0.60;;;0.60;;
12296;SDS011;6211;49.124;9.152;2023-12-29T12:43:25;0.75;;;0.75;;
12296;SDS011;6211;49.124;9.152;2023-12-29T12:45:54;1.73;;;1.63;;
12296;SDS011;6211;49.124;9.152;2023-12-29T12:48:22;1.17;;;1.08;;
12296;SDS011;6211;49.124;9.152;2023-12-29T12:50:51;1.00;;;0.80;;
12296;SDS011;6211;49.124;9.152;2023-12-29T12:53:21;0.93;;;0.90;;
12296;SDS011;6211;49.124;9.152;2023-12-29T12:55:49;0.70;;;0.70;;
12296;SDS011;6211;49.124;9.152;2023-12-29T12:58:16;0.70;;;0.70;;
12296;SDS011;6211;49.124;9.152;2023-12-29T13:00:44;0.85;;;0.65;;
12296;SDS011;6211;49.124;9.152;2023-12-29T13:03:12;0.93;;;0.80;;
12296;SDS011;6211;49.124;9.152;2023-12-29T13:05:40;0.80;;;0.75;;
12296;SDS011;6211;49.124;9.152;2023-12-29T13:08:08;1.35;;;0.77;;
12296;SDS011;6211;49.124;9.152;2023-12-29T13:10:39;0.60;;;0.60;;
12296;SDS011;6211;49.124;9.152;2023-12-29T13:13:07;1.63;;;1.20;;
12296;SDS011;6211;49.124;9.152;2023-12-29T13:15:34;1.15;;;1.05;;
12296;SDS011;6211;49.124;9.152;2023-12-29T13:18:01;1.85;;;0.88;;
12296;SDS011;6211;49.124;9.152;2023-12-29T13:20:28;1.13;;;0.93;;
12296;SDS011;6211;49.124;9.152;2023-12-29T13:22:55;1.00;;;1.00;;
12296;SDS011;6211;49.124;9.152;2023-12-29T13:25:25;0.98;;;0.98;;
12296;SDS011;6211;49.124;9.152;2023-12-29T13:27:53;1.00;;;0.90;;
12296;SDS011;6211;49.124;9.152;2023-12-29T13:30:21;1.05;;;0.98;;
12296;SDS011;6211;49.124;9.152;2023-12-29T13:32:48;0.70;;;0.70;;
12296;SDS011;6211;49.124;9.152;2023-12-29T13:35:17;1.00;;;0.90;;
12296;SDS011;6211;49.124;9.152;2023-12-29T13:37:45;0.80;;;0.80;;
12296;SDS011;6211;49.124;9.152;2023-12-29T13:40:14;1.15;;;1.05;;
12296;SDS011;6211;49.124;9.152;2023-12-29T13:42:45;1.95;;;1.25;;
12296;SDS011;6211;49.124;9.152;2023-12-29T13:45:13;0.90;;;0.90;;
12296;SDS011;6211;49.124;9.152;2023-12-29T13:47:42;0.75;;;0.75;;
12296;SDS011;6211;49.124;9.152;2023-12-29T13:50:09;1.20;;;1.10;;
12296;SDS011;6211;49.124;9.152;2023-12-29T13:52:36;1.10;;;1.00;;
12296;SDS011;6211;49.124;9.152;2023-12-29T13:55:04;1.27;;;0.93;;
12296;SDS011;6211;49.124;9.152;2023-12-29T13:57:32;1.20;;;0.85;;
12296;SDS011;6211;49.124;9.152;2023-12-29T14:02:42;0.93;;;0.88;;
12296;SDS011;6211;49.124;9.152;2023-12-29T14:05:11;1.73;;;1.63;;
12296;SDS011;6211;49.124;9.152;2023-12-29T14:07:43;1.92;;;1.70;;
12296;SDS011;6211;49.124;9.152;2023-12-29T14:10:12;4.03;;;2.58;;
12296;SDS011;6211;49.124;9.152;2023-12-29T14:12:39;1.08;;;0.90;;
12296;SDS011;6211;49.124;9.152;2023-12-29T14:15:07;1.10;;;1.00;;
12296;SDS011;6211;49.124;9.152;2023-12-29T14:17:35;1.05;;;0.90;;
12296;SDS011;6211;49.124;9.152;2023-12-29T14:20:05;0.85;;;0.85;;
12296;SDS011;6211;49.124;9.152;2023-12-29T14:22:32;1.98;;;1.38;;
12296;SDS011;6211;49.124;9.152;2023-12-29T14:25:00;0.80;;;0.80;;
12296;SDS011;6211;49.124;9.152;2023-12-29T14:27:28;0.90;;;0.90;;
12296;SDS011;6211;49.124;9.152;2023-12-29T14:29:56;2.05;;;0.88;;
12296;SDS011;6211;49.124;9.152;2023-12-29T14:32:23;1.75;;;1.35;;
12296;SDS011;6211;49.124;9.152;2023-12-29T14:34:50;1.90;;;1.10;;
12296;SDS011;6211;49.124;9.152;2023-12-29T14:37:21;0.82;;;0.80;;
12296;SDS011;6211;49.124;9.152;2023-12-29T14:39:50;0.80;;;0.80;;
12296;SDS011;6211;49.124;9.152;2023-12-29T14:42:17;1.00;;;0.90;;
12296;SDS011;6211;49.124;9.152;2023-12-29T14:44:47;2.13;;;1.17;;
12296;SDS011;6211;49.124;9.152;2023-12-29T14:47:14;1.30;;;1.05;;
12296;SDS011;6211;49.124;9.152;2023-12-29T14:49:42;1.45;;;1.02;;
12296;SDS011;6211;49.124;9.152;2023-12-29T14:52:09;1.77;;;1.00;;
12296;SDS011;6211;49.124;9.152;2023-12-29T14:54:39;1.10;;;1.00;;
12296;SDS011;6211;49.124;9.152;2023-12-29T14:57:06;1.33;;;1.23;;
12296;SDS011;6211;49.124;9.152;2023-12-29T14:59:33;3.63;;;1.20;;
12296;SDS011;6211;49.124;9.152;2023-12-29T15:02:01;0.90;;;0.80;;
12296;SDS011;6211;49.124;9.152;2023-12-29T15:04:32;1.00;;;0.90;;
12296;SDS011;6211;49.124;9.152;2023-12-29T15:06:59;1.15;;;0.88;;
12296;SDS011;6211;49.124;9.152;2023-12-29T15:09:26;1.40;;;1.00;;